createdAt,value
2022-12-24T00:00:24.376Z,997.80
2022-12-24T00:01:24.275Z,997.83
2022-12-24T00:02:24.405Z,997.85
2022-12-24T00:03:24.360Z,997.83
2022-12-24T00:04:24.242Z,997.85
2022-12-24T00:05:24.245Z,997.81
2022-12-24T00:06:24.247Z,997.81
2022-12-24T00:07:24.257Z,997.86
2022-12-24T00:08:24.267Z,997.85
2022-12-24T00:09:25.001Z,997.84
2022-12-24T00:10:24.231Z,997.84
2022-12-24T00:11:24.287Z,997.86
2022-12-24T00:12:24.234Z,997.86
2022-12-24T00:13:24.261Z,997.86
2022-12-24T00:14:24.216Z,997.88
2022-12-24T00:15:24.244Z,997.84
2022-12-24T00:16:24.273Z,997.84
2022-12-24T00:17:24.227Z,997.77
2022-12-24T00:18:24.214Z,997.78
2022-12-24T00:19:24.227Z,997.84
2022-12-24T00:20:24.239Z,997.83
2022-12-24T00:21:24.200Z,997.81
2022-12-24T00:22:24.218Z,997.84
2022-12-24T00:23:24.214Z,997.78
2022-12-24T00:24:24.209Z,997.81
2022-12-24T00:25:24.197Z,997.86
2022-12-24T00:26:24.190Z,997.88
2022-12-24T00:27:24.198Z,997.90
2022-12-24T00:28:24.186Z,997.89
2022-12-24T00:29:24.203Z,997.90
2022-12-24T00:30:24.204Z,997.91
2022-12-24T00:31:24.238Z,997.88
2022-12-24T00:32:24.182Z,997.89
2022-12-24T00:33:24.756Z,997.89
2022-12-24T00:34:24.183Z,997.87
2022-12-24T00:35:24.227Z,997.84
2022-12-24T00:36:24.175Z,997.86
2022-12-24T00:37:24.162Z,997.90
2022-12-24T00:38:24.168Z,997.86
2022-12-24T00:39:24.155Z,997.84
2022-12-24T00:40:24.176Z,997.84
2022-12-24T00:41:24.427Z,997.93
2022-12-24T00:42:24.163Z,997.93
2022-12-24T00:43:24.143Z,997.95
2022-12-24T00:44:24.145Z,997.95
2022-12-24T00:45:24.148Z,997.95
2022-12-24T00:46:24.228Z,997.96
2022-12-24T00:47:24.144Z,997.98
2022-12-24T00:48:24.147Z,997.97
2022-12-24T00:49:24.130Z,997.94
2022-12-24T00:50:24.139Z,998.03
2022-12-24T00:51:24.182Z,998.02
2022-12-24T00:52:24.151Z,998.05
2022-12-24T00:53:24.130Z,998.06
2022-12-24T00:54:24.117Z,998.06
2022-12-24T00:55:24.120Z,998.02
2022-12-24T00:56:24.148Z,998.09
2022-12-24T00:57:24.121Z,998.15
2022-12-24T00:58:24.106Z,998.12
2022-12-24T00:59:24.115Z,998.16
2022-12-24T01:00:24.119Z,998.13
2022-12-24T01:01:24.321Z,998.18
2022-12-24T01:02:24.290Z,998.19
2022-12-24T01:03:24.128Z,998.19
2022-12-24T01:04:24.092Z,998.13
2022-12-24T01:05:24.104Z,998.20
2022-12-24T01:06:24.091Z,998.13
2022-12-24T01:07:24.081Z,998.12
2022-12-24T01:08:24.133Z,998.06
2022-12-24T01:09:24.098Z,998.18
2022-12-24T01:10:24.088Z,998.24
2022-12-24T01:11:24.084Z,998.22
2022-12-24T01:12:24.076Z,998.22
2022-12-24T01:13:24.081Z,998.28
2022-12-24T01:14:24.066Z,998.25
2022-12-24T01:15:24.072Z,998.24
2022-12-24T01:16:24.091Z,998.26
2022-12-24T01:17:24.069Z,998.27
2022-12-24T01:18:24.067Z,998.27
2022-12-24T01:19:24.069Z,998.31
2022-12-24T01:20:24.063Z,998.25
2022-12-24T01:21:24.063Z,998.33
2022-12-24T01:22:24.053Z,998.32
2022-12-24T01:23:24.102Z,998.28
2022-12-24T01:24:24.060Z,998.27
2022-12-24T01:25:24.044Z,998.32
2022-12-24T01:26:24.037Z,998.25
2022-12-24T01:27:24.034Z,998.31
2022-12-24T01:28:24.052Z,998.23
2022-12-24T01:29:24.043Z,998.27
2022-12-24T01:30:24.046Z,998.30
2022-12-24T01:31:24.167Z,998.33
2022-12-24T01:32:24.019Z,998.37
2022-12-24T01:33:24.044Z,998.37
2022-12-24T01:34:24.032Z,998.36
2022-12-24T01:35:24.035Z,998.32
2022-12-24T01:36:24.010Z,998.32
2022-12-24T01:37:24.010Z,998.33
2022-12-24T01:38:24.013Z,998.32
2022-12-24T01:39:24.016Z,998.33
2022-12-24T01:40:24.006Z,998.32
2022-12-24T01:41:24.029Z,998.29
2022-12-24T01:42:24.027Z,998.29
2022-12-24T01:43:24.001Z,998.37
2022-12-24T01:44:27.150Z,998.38
2022-12-24T01:45:23.996Z,998.45
2022-12-24T01:46:24.021Z,998.43
2022-12-24T01:47:23.991Z,998.49
2022-12-24T01:48:23.976Z,998.49
2022-12-24T01:49:23.991Z,998.54
2022-12-24T01:50:23.993Z,998.56
2022-12-24T01:51:23.987Z,998.55
2022-12-24T01:52:23.976Z,998.53
2022-12-24T01:53:23.976Z,998.53
2022-12-24T01:54:23.968Z,998.54
2022-12-24T01:55:23.990Z,998.55
2022-12-24T01:56:23.969Z,998.55
2022-12-24T01:57:23.950Z,998.54
2022-12-24T01:58:23.955Z,998.50
2022-12-24T01:59:23.947Z,998.54
2022-12-24T02:00:23.965Z,998.57
2022-12-24T02:01:23.976Z,998.57
2022-12-24T02:02:24.260Z,998.57
2022-12-24T02:03:24.064Z,998.65
2022-12-24T02:04:23.960Z,998.68
2022-12-24T02:05:23.964Z,998.69
2022-12-24T02:06:23.936Z,998.72
2022-12-24T02:07:23.926Z,998.79
2022-12-24T02:08:23.968Z,998.78
2022-12-24T02:09:23.929Z,998.80
2022-12-24T02:10:23.939Z,998.83
2022-12-24T02:11:23.927Z,998.89
2022-12-24T02:12:23.917Z,998.89
2022-12-24T02:13:23.925Z,998.92
2022-12-24T02:14:23.911Z,998.90
2022-12-24T02:15:23.905Z,998.96
2022-12-24T02:16:24.022Z,998.92
2022-12-24T02:17:23.903Z,998.93
2022-12-24T02:18:23.913Z,998.92
2022-12-24T02:19:23.907Z,998.93
2022-12-24T02:20:23.898Z,998.96
2022-12-24T02:21:23.900Z,998.97
2022-12-24T02:22:23.900Z,998.98
2022-12-24T02:23:23.881Z,999.00
2022-12-24T02:24:23.919Z,999.05
2022-12-24T02:25:23.884Z,999.03
2022-12-24T02:26:23.882Z,999.04
2022-12-24T02:27:23.886Z,999.13
2022-12-24T02:28:23.885Z,999.09
2022-12-24T02:29:23.879Z,999.09
2022-12-24T02:30:23.878Z,999.08
2022-12-24T02:31:23.880Z,999.17
2022-12-24T02:32:23.971Z,999.21
2022-12-24T02:33:23.862Z,999.19
2022-12-24T02:34:23.881Z,999.26
2022-12-24T02:35:23.866Z,999.26
2022-12-24T02:36:23.881Z,999.27
2022-12-24T02:37:23.852Z,999.33
2022-12-24T02:38:23.858Z,999.30
2022-12-24T02:39:23.858Z,999.28
2022-12-24T02:40:23.869Z,999.30
2022-12-24T02:41:23.863Z,999.30
2022-12-24T02:42:23.846Z,999.32
2022-12-24T02:43:23.833Z,999.36
2022-12-24T02:44:23.841Z,999.33
2022-12-24T02:45:23.859Z,999.31
2022-12-24T02:46:23.894Z,999.41
2022-12-24T02:47:23.826Z,999.35
2022-12-24T02:48:23.840Z,999.41
2022-12-24T02:49:23.825Z,999.43
2022-12-24T02:50:23.823Z,999.40
2022-12-24T02:51:23.843Z,999.42
2022-12-24T02:52:23.846Z,999.50
2022-12-24T02:53:23.805Z,999.49
2022-12-24T02:54:23.828Z,999.50
2022-12-24T02:55:23.805Z,999.53
2022-12-24T02:56:23.815Z,999.56
2022-12-24T02:57:23.797Z,999.58
2022-12-24T02:58:23.798Z,999.56
2022-12-24T02:59:23.793Z,999.58
2022-12-24T03:00:23.846Z,999.54
2022-12-24T03:01:23.895Z,999.50
2022-12-24T03:02:23.887Z,999.50
2022-12-24T03:03:23.806Z,999.53
2022-12-24T03:04:23.791Z,999.53
2022-12-24T03:05:23.784Z,999.52
2022-12-24T03:06:23.810Z,999.52
2022-12-24T03:07:23.773Z,999.61
2022-12-24T03:08:23.783Z,999.59
2022-12-24T03:09:23.781Z,999.58
2022-12-24T03:10:23.776Z,999.64
2022-12-24T03:11:23.764Z,999.63
2022-12-24T03:12:23.786Z,999.66
2022-12-24T03:13:23.767Z,999.63
2022-12-24T03:14:23.778Z,999.68
2022-12-24T03:15:23.760Z,999.74
2022-12-24T03:16:23.857Z,999.67
2022-12-24T03:17:23.786Z,999.69
2022-12-24T03:18:23.752Z,999.70
2022-12-24T03:19:23.758Z,999.71
2022-12-24T03:20:23.766Z,999.67
2022-12-24T03:21:23.748Z,999.71
2022-12-24T03:22:23.734Z,999.73
2022-12-24T03:23:23.749Z,999.75
2022-12-24T03:24:23.746Z,999.77
2022-12-24T03:25:23.748Z,999.75
2022-12-24T03:26:23.744Z,999.71
2022-12-24T03:27:23.731Z,999.77
2022-12-24T03:28:23.744Z,999.77
2022-12-24T03:29:23.736Z,999.76
2022-12-24T03:30:23.740Z,999.77
2022-12-24T03:31:23.829Z,999.76
2022-12-24T03:32:23.711Z,999.84
2022-12-24T03:33:23.718Z,999.92
2022-12-24T03:34:23.726Z,999.91
2022-12-24T03:35:23.709Z,999.96
2022-12-24T03:36:23.755Z,999.99
2022-12-24T03:37:23.709Z,999.98
2022-12-24T03:38:23.703Z,999.97
2022-12-24T03:39:23.714Z,1000.01
2022-12-24T03:40:23.714Z,1000.04
2022-12-24T03:41:23.702Z,1000.05
2022-12-24T03:42:23.709Z,1000.03
2022-12-24T03:43:23.682Z,1000.09
2022-12-24T03:44:23.690Z,1000.07
2022-12-24T03:45:23.707Z,1000.08
2022-12-24T03:46:23.783Z,1000.15
2022-12-24T03:47:23.672Z,1000.12
2022-12-24T03:48:27.468Z,1000.16
2022-12-24T03:49:23.682Z,1000.19
2022-12-24T03:50:23.688Z,1000.16
2022-12-24T03:51:23.671Z,1000.17
2022-12-24T03:52:23.660Z,1000.18
2022-12-24T03:53:23.660Z,1000.20
2022-12-24T03:54:23.692Z,1000.19
2022-12-24T03:55:23.651Z,1000.17
2022-12-24T03:56:23.656Z,1000.18
2022-12-24T03:57:23.677Z,1000.15
2022-12-24T03:58:23.665Z,1000.14
2022-12-24T03:59:23.655Z,1000.15
2022-12-24T04:00:23.657Z,1000.12
2022-12-24T04:01:23.840Z,1000.17
2022-12-24T04:02:23.818Z,1000.17
2022-12-24T04:03:23.776Z,1000.25
2022-12-24T04:04:23.634Z,1000.29
2022-12-24T04:05:23.633Z,1000.31
2022-12-24T04:06:23.654Z,1000.24
2022-12-24T04:07:23.649Z,1000.27
2022-12-24T04:08:23.657Z,1000.23
2022-12-24T04:09:23.627Z,1000.30
2022-12-24T04:10:23.632Z,1000.30
2022-12-24T04:11:23.614Z,1000.36
2022-12-24T04:12:23.627Z,1000.34
2022-12-24T04:13:23.635Z,1000.34
2022-12-24T04:14:23.617Z,1000.37
2022-12-24T04:15:23.619Z,1000.30
2022-12-24T04:16:23.672Z,1000.29
2022-12-24T04:17:23.609Z,1000.30
2022-12-24T04:18:23.616Z,1000.17
2022-12-24T04:19:23.603Z,1000.22
2022-12-24T04:20:23.644Z,1000.24
2022-12-24T04:21:23.590Z,1000.25
2022-12-24T04:22:23.598Z,1000.28
2022-12-24T04:23:23.591Z,1000.33
2022-12-24T04:24:23.611Z,1000.37
2022-12-24T04:25:23.594Z,1000.37
2022-12-24T04:26:23.585Z,1000.46
2022-12-24T04:27:29.942Z,1000.41
2022-12-24T04:28:23.582Z,1000.50
2022-12-24T04:29:23.581Z,1000.50
2022-12-24T04:30:23.577Z,1000.51
2022-12-24T04:31:23.638Z,1000.56
2022-12-24T04:32:23.596Z,1000.58
2022-12-24T04:33:23.561Z,1000.63
2022-12-24T04:34:23.556Z,1000.64
2022-12-24T04:35:23.568Z,1000.68
2022-12-24T04:36:23.557Z,1000.66
2022-12-24T04:37:23.550Z,1000.72
2022-12-24T04:38:23.551Z,1000.74
2022-12-24T04:39:23.559Z,1000.70
2022-12-24T04:40:23.559Z,1000.72
2022-12-24T04:41:24.781Z,1000.79
2022-12-24T04:42:23.563Z,1000.80
2022-12-24T04:43:23.547Z,1000.83
2022-12-24T04:44:23.536Z,1000.82
2022-12-24T04:45:23.540Z,1000.87
2022-12-24T04:46:23.611Z,1000.88
2022-12-24T04:47:23.544Z,1000.85
2022-12-24T04:48:23.550Z,1000.89
2022-12-24T04:49:23.546Z,1000.86
2022-12-24T04:50:23.533Z,1000.89
2022-12-24T04:51:23.566Z,1000.88
2022-12-24T04:52:23.539Z,1000.87
2022-12-24T04:53:23.537Z,1000.85
2022-12-24T04:54:23.514Z,1000.87
2022-12-24T04:55:23.523Z,1000.87
2022-12-24T04:56:23.517Z,1000.95
2022-12-24T04:57:23.513Z,1000.91
2022-12-24T04:58:23.509Z,1000.89
2022-12-24T04:59:23.511Z,1000.90
2022-12-24T05:00:23.509Z,1000.90
2022-12-24T05:01:23.658Z,1000.85
2022-12-24T05:02:23.753Z,1000.90
2022-12-24T05:03:23.546Z,1000.91
2022-12-24T05:04:23.504Z,1000.89
2022-12-24T05:05:23.491Z,1000.90
2022-12-24T05:06:23.481Z,1000.94
2022-12-24T05:07:23.494Z,1000.91
2022-12-24T05:08:23.474Z,1000.88
2022-12-24T05:09:23.493Z,1000.92
2022-12-24T05:10:23.467Z,1000.90
2022-12-24T05:11:23.499Z,1000.85
2022-12-24T05:12:23.473Z,1000.90
2022-12-24T05:13:24.506Z,1000.89
2022-12-24T05:14:23.487Z,1000.89
2022-12-24T05:15:23.457Z,1000.91
2022-12-24T05:16:23.490Z,1000.89
2022-12-24T05:17:23.493Z,1000.94
2022-12-24T05:18:23.448Z,1000.98
2022-12-24T05:19:23.460Z,1000.98
2022-12-24T05:20:23.468Z,1000.99
2022-12-24T05:21:23.459Z,1001.02
2022-12-24T05:22:23.462Z,1001.01
2022-12-24T05:23:23.435Z,1001.01
2022-12-24T05:24:23.438Z,1001.02
2022-12-24T05:25:23.458Z,1000.98
2022-12-24T05:26:23.442Z,1000.97
2022-12-24T05:27:23.429Z,1000.97
2022-12-24T05:28:23.439Z,1000.97
2022-12-24T05:29:23.426Z,1000.99
2022-12-24T05:30:23.435Z,1000.98
2022-12-24T05:31:23.514Z,1001.05
2022-12-24T05:32:23.424Z,1001.06
2022-12-24T05:33:23.414Z,1000.92
2022-12-24T05:34:23.426Z,1000.90
2022-12-24T05:35:23.406Z,1000.93
2022-12-24T05:36:23.428Z,1000.90
2022-12-24T05:37:23.423Z,1000.96
2022-12-24T05:38:23.403Z,1000.95
2022-12-24T05:39:23.415Z,1001.02
2022-12-24T05:40:23.405Z,1001.00
2022-12-24T05:41:23.405Z,1001.04
2022-12-24T05:42:23.404Z,1001.03
2022-12-24T05:43:23.384Z,1001.11
2022-12-24T05:44:23.402Z,1001.07
2022-12-24T05:45:23.394Z,1001.14
2022-12-24T05:46:23.534Z,1001.14
2022-12-24T05:47:23.376Z,1001.24
2022-12-24T05:48:23.402Z,1001.30
2022-12-24T05:49:23.401Z,1001.30
2022-12-24T05:50:23.372Z,1001.34
2022-12-24T05:51:23.390Z,1001.38
2022-12-24T05:52:23.381Z,1001.39
2022-12-24T05:53:23.401Z,1001.42
2022-12-24T05:54:23.373Z,1001.43
2022-12-24T05:55:23.366Z,1001.47
2022-12-24T05:56:23.380Z,1001.42
2022-12-24T05:57:23.386Z,1001.43
2022-12-24T05:58:23.352Z,1001.40
2022-12-24T05:59:23.373Z,1001.40
2022-12-24T06:00:23.362Z,1001.32
2022-12-24T06:01:23.430Z,1001.29
2022-12-24T06:02:23.417Z,1001.27
2022-12-24T06:03:23.345Z,1001.25
2022-12-24T06:04:28.653Z,1001.28
2022-12-24T06:05:23.353Z,1001.28
2022-12-24T06:06:23.347Z,1001.32
2022-12-24T06:07:23.329Z,1001.37
2022-12-24T06:08:23.507Z,1001.39
2022-12-24T06:09:23.335Z,1001.37
2022-12-24T06:10:23.328Z,1001.47
2022-12-24T06:11:23.345Z,1001.49
2022-12-24T06:12:23.367Z,1001.49
2022-12-24T06:13:23.326Z,1001.51
2022-12-24T06:14:23.310Z,1001.56
2022-12-24T06:15:24.249Z,1001.57
2022-12-24T06:16:23.417Z,1001.53
2022-12-24T06:17:23.335Z,1001.57
2022-12-24T06:18:23.312Z,1001.60
2022-12-24T06:19:23.321Z,1001.55
2022-12-24T06:20:23.300Z,1001.55
2022-12-24T06:21:23.313Z,1001.55
2022-12-24T06:22:23.304Z,1001.55
2022-12-24T06:23:23.293Z,1001.51
2022-12-24T06:24:23.302Z,1001.48
2022-12-24T06:25:23.288Z,1001.56
2022-12-24T06:26:23.295Z,1001.53
2022-12-24T06:27:23.288Z,1001.61
2022-12-24T06:28:23.290Z,1001.68
2022-12-24T06:29:23.299Z,1001.67
2022-12-24T06:30:23.288Z,1001.69
2022-12-24T06:31:23.414Z,1001.70
2022-12-24T06:32:23.267Z,1001.68
2022-12-24T06:33:23.275Z,1001.67
2022-12-24T06:34:23.308Z,1001.69
2022-12-24T06:35:23.277Z,1001.68
2022-12-24T06:36:23.275Z,1001.64
2022-12-24T06:37:23.257Z,1001.63
2022-12-24T06:38:23.265Z,1001.67
2022-12-24T06:39:23.262Z,1001.67
2022-12-24T06:40:23.255Z,1001.66
2022-12-24T06:41:23.238Z,1001.70
2022-12-24T06:42:23.260Z,1001.81
2022-12-24T06:43:23.262Z,1001.81
2022-12-24T06:44:23.245Z,1001.81
2022-12-24T06:45:23.243Z,1001.75
2022-12-24T06:46:23.372Z,1001.71
2022-12-24T06:47:23.237Z,1001.71
2022-12-24T06:48:23.224Z,1001.72
2022-12-24T06:49:23.235Z,1001.76
2022-12-24T06:50:23.253Z,1001.82
2022-12-24T06:51:23.278Z,1001.85
2022-12-24T06:52:23.222Z,1001.89
2022-12-24T06:53:23.213Z,1001.88
2022-12-24T06:54:23.209Z,1001.91
2022-12-24T06:55:23.226Z,1001.93
2022-12-24T06:56:23.223Z,1001.97
2022-12-24T06:57:23.221Z,1001.99
2022-12-24T06:58:23.215Z,1001.94
2022-12-24T06:59:23.208Z,1002.06
2022-12-24T07:00:23.206Z,1002.05
2022-12-24T07:01:23.275Z,1002.03
2022-12-24T07:02:23.323Z,1002.08
2022-12-24T07:03:23.248Z,1002.08
2022-12-24T07:04:23.335Z,1002.11
2022-12-24T07:05:23.192Z,1002.06
2022-12-24T07:06:23.183Z,1002.09
2022-12-24T07:07:23.228Z,1002.06
2022-12-24T07:08:23.174Z,1002.08
2022-12-24T07:09:23.178Z,1002.06
2022-12-24T07:10:23.171Z,1002.13
2022-12-24T07:11:23.194Z,1002.09
2022-12-24T07:12:23.170Z,1002.19
2022-12-24T07:13:23.166Z,1002.22
2022-12-24T07:14:23.181Z,1002.21
2022-12-24T07:15:23.164Z,1002.23
2022-12-24T07:16:23.356Z,1002.25
2022-12-24T07:17:23.279Z,1002.28
2022-12-24T07:18:23.175Z,1002.28
2022-12-24T07:19:23.153Z,1002.25
2022-12-24T07:20:23.153Z,1002.24
2022-12-24T07:21:23.148Z,1002.31
2022-12-24T07:22:23.169Z,1002.38
2022-12-24T07:23:24.561Z,1002.38
2022-12-24T07:24:23.134Z,1002.34
2022-12-24T07:25:23.144Z,1002.38
2022-12-24T07:26:23.137Z,1002.45
2022-12-24T07:27:23.146Z,1002.48
2022-12-24T07:28:27.868Z,1002.49
2022-12-24T07:29:23.119Z,1002.48
2022-12-24T07:30:23.126Z,1002.44
2022-12-24T07:31:23.153Z,1002.46
2022-12-24T07:32:23.130Z,1002.44
2022-12-24T07:33:23.125Z,1002.47
2022-12-24T07:34:32.643Z,1002.48
2022-12-24T07:35:23.103Z,1002.51
2022-12-24T07:36:23.103Z,1002.52
2022-12-24T07:37:23.102Z,1002.53
2022-12-24T07:38:23.150Z,1002.57
2022-12-24T07:39:24.081Z,1002.60
2022-12-24T07:40:23.085Z,1002.62
2022-12-24T07:41:23.100Z,1002.63
2022-12-24T07:42:23.091Z,1002.62
2022-12-24T07:43:23.082Z,1002.61
2022-12-24T07:44:23.106Z,1002.60
2022-12-24T07:45:23.097Z,1002.60
2022-12-24T07:46:23.167Z,1002.59
2022-12-24T07:47:23.090Z,1002.58
2022-12-24T07:48:23.098Z,1002.61
2022-12-24T07:49:23.079Z,1002.66
2022-12-24T07:50:23.080Z,1002.66
2022-12-24T07:51:23.111Z,1002.68
2022-12-24T07:52:23.060Z,1002.68
2022-12-24T07:53:23.066Z,1002.73
2022-12-24T07:54:23.105Z,1002.73
2022-12-24T07:55:23.105Z,1002.73
2022-12-24T07:56:23.050Z,1002.80
2022-12-24T07:57:23.056Z,1002.78
2022-12-24T07:58:23.042Z,1002.80
2022-12-24T07:59:23.147Z,1002.81
2022-12-24T08:00:32.744Z,1002.80
2022-12-24T08:01:23.136Z,1002.83
2022-12-24T08:02:23.279Z,1002.81
2022-12-24T08:03:23.122Z,1002.80
2022-12-24T08:05:23.814Z,1002.77
2022-12-24T08:06:23.028Z,1002.75
2022-12-24T08:07:23.031Z,1002.75
2022-12-24T08:08:23.091Z,1002.74
2022-12-24T08:09:23.616Z,1002.79
2022-12-24T08:10:23.029Z,1002.77
2022-12-24T08:13:05.414Z,1002.79
2022-12-24T08:14:05.305Z,1002.77
2022-12-24T08:15:05.243Z,1002.82
2022-12-24T08:16:13.127Z,1002.82
2022-12-24T08:17:05.238Z,1002.84
2022-12-24T08:18:05.234Z,1002.83
2022-12-24T08:19:05.251Z,1002.80
2022-12-24T08:20:05.820Z,1002.79
2022-12-24T08:21:05.819Z,1002.78
2022-12-24T08:22:05.366Z,1002.84
2022-12-24T08:23:05.244Z,1002.89
2022-12-24T08:24:05.996Z,1002.86
2022-12-24T08:25:05.279Z,1002.92
2022-12-24T08:26:05.220Z,1002.93
2022-12-24T08:27:05.223Z,1002.93
2022-12-24T08:28:05.207Z,1002.91
2022-12-24T08:29:05.193Z,1002.98
2022-12-24T08:30:05.212Z,1002.98
2022-12-24T08:31:05.326Z,1003.00
2022-12-24T08:32:05.262Z,1003.02
2022-12-24T08:33:05.187Z,1002.99
2022-12-24T08:34:05.207Z,1003.04
2022-12-24T08:35:05.178Z,1003.02
2022-12-24T08:36:05.210Z,1002.99
2022-12-24T08:37:05.351Z,1002.95
2022-12-24T08:38:05.192Z,1003.01
2022-12-24T08:39:05.171Z,1003.04
2022-12-24T08:40:05.182Z,1003.09
2022-12-24T08:41:05.160Z,1003.07
2022-12-24T08:42:05.209Z,1003.11
2022-12-24T08:43:05.159Z,1003.11
2022-12-24T08:44:05.164Z,1003.16
2022-12-24T08:45:05.169Z,1003.14
2022-12-24T08:46:05.279Z,1003.17
2022-12-24T08:47:05.164Z,1003.17
2022-12-24T08:48:05.158Z,1003.18
2022-12-24T08:49:05.152Z,1003.17
2022-12-24T08:50:05.148Z,1003.16
2022-12-24T08:51:05.173Z,1003.16
2022-12-24T08:52:05.153Z,1003.17
2022-12-24T08:53:05.155Z,1003.22
2022-12-24T08:54:05.144Z,1003.21
2022-12-24T08:55:05.824Z,1003.21
2022-12-24T08:56:05.135Z,1003.21
2022-12-24T08:57:05.156Z,1003.22
2022-12-24T08:58:05.146Z,1003.24
2022-12-24T08:59:05.125Z,1003.25
2022-12-24T09:00:05.137Z,1003.18
2022-12-24T09:01:05.226Z,1003.22
2022-12-24T09:02:05.250Z,1003.26
2022-12-24T09:03:05.173Z,1003.24
2022-12-24T09:04:05.337Z,1003.27
2022-12-24T09:05:05.231Z,1003.29
2022-12-24T09:06:05.111Z,1003.29
2022-12-24T09:07:05.134Z,1003.32
2022-12-24T09:08:05.129Z,1003.39
2022-12-24T09:09:05.099Z,1003.41
2022-12-24T09:10:05.103Z,1003.42
2022-12-24T09:11:05.103Z,1003.48
2022-12-24T09:12:05.140Z,1003.43
2022-12-24T09:13:05.119Z,1003.50
2022-12-24T09:14:05.107Z,1003.51
2022-12-24T09:15:05.081Z,1003.54
2022-12-24T09:16:05.224Z,1003.52
2022-12-24T09:17:05.146Z,1003.54
2022-12-24T09:18:05.082Z,1003.59
2022-12-24T09:19:05.100Z,1003.63
2022-12-24T09:20:05.092Z,1003.63
2022-12-24T09:21:05.111Z,1003.70
2022-12-24T09:22:15.456Z,1003.67
2022-12-24T09:23:05.068Z,1003.66
2022-12-24T09:24:05.074Z,1003.65
2022-12-24T09:25:05.104Z,1003.65
2022-12-24T09:28:05.867Z,1003.75
2022-12-24T09:30:37.247Z,1003.79
2022-12-24T09:31:37.015Z,1003.79
2022-12-24T09:32:36.970Z,1003.83
2022-12-24T09:33:37.005Z,1003.88
2022-12-24T09:34:37.063Z,1003.86
2022-12-24T09:35:36.976Z,1003.91
2022-12-24T09:36:37.202Z,1003.94
2022-12-24T09:38:45.127Z,1003.95
2022-12-24T09:39:37.618Z,1003.92
2022-12-24T09:40:36.934Z,1003.94
2022-12-24T09:41:36.951Z,1003.96
2022-12-24T09:42:36.928Z,1003.86
2022-12-24T09:43:36.925Z,1003.92
2022-12-24T09:44:36.930Z,1003.92
2022-12-24T09:45:37.035Z,1003.93
2022-12-24T09:46:36.908Z,1003.94
2022-12-24T09:47:36.946Z,1004.01
2022-12-24T09:48:36.917Z,1004.03
2022-12-24T09:49:36.918Z,1004.02
2022-12-24T09:50:36.936Z,1004.11
2022-12-24T09:51:36.926Z,1004.09
2022-12-24T09:52:36.917Z,1004.12
2022-12-24T09:53:36.955Z,1004.06
2022-12-24T09:54:36.907Z,1004.12
2022-12-24T09:55:36.905Z,1004.12
2022-12-24T09:56:36.916Z,1004.14
2022-12-24T09:57:36.898Z,1004.18
2022-12-24T09:58:36.903Z,1004.17
2022-12-24T09:59:36.893Z,1004.18
2022-12-24T10:00:36.909Z,1004.19
2022-12-24T10:01:37.005Z,1004.20
2022-12-24T10:02:37.048Z,1004.25
2022-12-24T10:03:47.268Z,1004.23
2022-12-24T10:07:32.171Z,1004.37
2022-12-24T10:08:29.631Z,1004.39
2022-12-24T10:09:22.937Z,1004.40
2022-12-24T10:10:22.701Z,1004.42
2022-12-24T10:11:22.717Z,1004.40
2022-12-24T10:14:02.785Z,1004.41
2022-12-24T10:15:10.910Z,1004.45
2022-12-24T10:16:03.796Z,1004.42
2022-12-24T10:20:36.318Z,1004.52
2022-12-24T10:21:37.641Z,1004.53
2022-12-24T10:22:36.628Z,1004.53
2022-12-24T10:23:36.428Z,1004.49
2022-12-24T10:24:36.290Z,1004.51
2022-12-24T10:25:36.336Z,1004.52
2022-12-24T10:26:36.285Z,1004.51
2022-12-24T10:27:47.601Z,1004.56
2022-12-24T10:28:52.979Z,1004.56
2022-12-24T10:29:36.296Z,1004.65
2022-12-24T10:30:44.422Z,1004.66
2022-12-24T10:31:36.308Z,1004.72
2022-12-24T10:32:50.880Z,1004.70
2022-12-24T10:33:36.297Z,1004.76
2022-12-24T10:34:37.991Z,1004.80
2022-12-24T10:37:16.855Z,1004.80
2022-12-24T10:38:16.962Z,1004.81
2022-12-24T10:39:17.216Z,1004.83
2022-12-24T10:40:27.346Z,1004.83
2022-12-24T10:43:41.476Z,1004.81
2022-12-24T10:44:50.338Z,1004.74
2022-12-24T10:45:41.508Z,1004.77
2022-12-24T10:46:57.386Z,1004.78
2022-12-24T10:47:52.355Z,1004.78
2022-12-24T10:48:53.887Z,1004.84
2022-12-24T10:49:41.465Z,1004.80
2022-12-24T10:50:42.186Z,1004.85
2022-12-24T10:51:53.098Z,1004.82
2022-12-24T10:52:41.361Z,1004.88
2022-12-24T10:53:41.386Z,1004.92
2022-12-24T10:54:41.364Z,1004.89
2022-12-24T10:55:41.368Z,1004.96
2022-12-24T10:56:41.376Z,1004.93
2022-12-24T10:57:41.356Z,1004.91
2022-12-24T10:58:41.365Z,1004.94
2022-12-24T11:03:03.509Z,1005.03
2022-12-24T11:04:03.806Z,1005.04
2022-12-24T11:05:13.910Z,1005.04
2022-12-24T11:06:03.278Z,1005.06
2022-12-24T11:07:09.935Z,1005.01
2022-12-24T11:08:03.254Z,1004.99
2022-12-24T11:09:03.237Z,1005.04
2022-12-24T11:10:18.560Z,1005.00
2022-12-24T11:11:03.656Z,1005.04
2022-12-24T11:12:08.604Z,1005.02
2022-12-24T11:13:35.768Z,1004.98
2022-12-24T11:14:14.463Z,1005.04
2022-12-24T11:15:03.215Z,1004.99
2022-12-24T11:16:03.318Z,1005.06
2022-12-24T11:17:03.191Z,1005.06
2022-12-24T11:18:03.251Z,1005.05
2022-12-24T11:19:03.203Z,1005.10
2022-12-24T11:20:03.204Z,1005.09
2022-12-24T11:21:03.198Z,1005.12
2022-12-24T11:22:03.205Z,1005.14
2022-12-24T11:23:03.215Z,1005.21
2022-12-24T11:25:54.506Z,1005.23
2022-12-24T11:26:54.764Z,1005.19
2022-12-24T11:27:54.572Z,1005.16
2022-12-24T11:29:07.549Z,1005.09
2022-12-24T11:29:59.421Z,1005.17
2022-12-24T11:30:54.522Z,1005.16
2022-12-24T11:31:54.609Z,1005.17
2022-12-24T11:32:54.488Z,1005.16
2022-12-24T11:33:54.474Z,1005.13
2022-12-24T11:34:54.482Z,1005.21
2022-12-24T11:35:54.475Z,1005.20
2022-12-24T11:36:54.478Z,1005.25
2022-12-24T11:38:09.411Z,1005.23
2022-12-24T11:38:54.483Z,1005.21
2022-12-24T11:39:54.520Z,1005.24
2022-12-24T11:40:54.450Z,1005.26
2022-12-24T11:41:54.462Z,1005.24
2022-12-24T11:42:54.457Z,1005.22
2022-12-24T11:43:54.459Z,1005.31
2022-12-24T11:44:54.481Z,1005.29
2022-12-24T11:45:54.504Z,1005.29
2022-12-24T11:46:54.488Z,1005.34
2022-12-24T11:47:54.448Z,1005.38
2022-12-24T11:48:54.455Z,1005.40
2022-12-24T11:49:56.952Z,1005.35
2022-12-24T11:50:54.472Z,1005.39
2022-12-24T11:51:54.456Z,1005.36
2022-12-24T11:52:54.434Z,1005.36
2022-12-24T11:54:05.989Z,1005.37
2022-12-24T11:54:54.466Z,1005.38
2022-12-24T11:55:54.435Z,1005.38
2022-12-24T11:56:54.437Z,1005.38
2022-12-24T11:57:54.435Z,1005.39
2022-12-24T11:58:54.423Z,1005.40
2022-12-24T11:59:54.411Z,1005.42
2022-12-24T12:00:54.448Z,1005.41
2022-12-24T12:01:54.506Z,1005.43
2022-12-24T12:02:54.476Z,1005.28
2022-12-24T12:03:54.479Z,1005.33
2022-12-24T12:04:54.412Z,1005.32
2022-12-24T12:05:54.437Z,1005.35
2022-12-24T12:06:54.416Z,1005.34
2022-12-24T12:07:54.487Z,1005.36
2022-12-24T12:08:54.403Z,1005.42
2022-12-24T12:09:54.410Z,1005.37
2022-12-24T12:10:54.430Z,1005.44
2022-12-24T12:11:54.445Z,1005.43
2022-12-24T12:13:12.815Z,1005.48
2022-12-24T12:13:54.429Z,1005.46
2022-12-24T12:14:54.431Z,1005.50
2022-12-24T12:15:54.484Z,1005.54
2022-12-24T12:17:04.554Z,1005.57
2022-12-24T12:17:54.457Z,1005.55
2022-12-24T12:18:54.389Z,1005.59
2022-12-24T12:19:54.955Z,1005.57
2022-12-24T12:20:54.393Z,1005.55
2022-12-24T12:21:54.417Z,1005.58
2022-12-24T12:22:54.396Z,1005.60
2022-12-24T12:23:54.379Z,1005.57
2022-12-24T12:24:54.395Z,1005.63
2022-12-24T12:25:54.412Z,1005.57
2022-12-24T12:26:54.380Z,1005.60
2022-12-24T12:27:54.405Z,1005.68
2022-12-24T12:28:54.381Z,1005.65
2022-12-24T12:29:54.377Z,1005.73
2022-12-24T12:30:54.428Z,1005.67
2022-12-24T12:32:03.681Z,1005.69
2022-12-24T12:32:54.503Z,1005.69
2022-12-24T12:33:54.512Z,1005.74
2022-12-24T12:41:41.959Z,1005.77
2022-12-24T12:42:42.039Z,1005.82
2022-12-24T12:46:02.596Z,1005.81